sensor_id;sensor_type;location;lat;lon;timestamp;temperature;humidity
2721;DHT22;1368;49.484;11.112;2022-09-28T00:00:06;9.40;99.90
2721;DHT22;1368;49.484;11.112;2022-09-28T00:02:32;9.50;99.90
2721;DHT22;1368;49.484;11.112;2022-09-28T00:04:59;9.50;99.90
2721;DHT22;1368;49.484;11.112;2022-09-28T00:07:24;9.30;99.90
2721;DHT22;1368;49.484;11.112;2022-09-28T00:09:50;9.10;99.90
2721;DHT22;1368;49.484;11.112;2022-09-28T00:12:15;9.20;99.90
2721;DHT22;1368;49.484;11.112;2022-09-28T00:14:41;9.40;99.90
2721;DHT22;1368;49.484;11.112;2022-09-28T00:17:09;9.50;99.90
2721;DHT22;1368;49.484;11.112;2022-09-28T00:19:36;9.60;99.90
2721;DHT22;1368;49.484;11.112;2022-09-28T00:22:04;9.30;99.90
2721;DHT22;1368;49.484;11.112;2022-09-28T00:24:30;8.70;99.90
2721;DHT22;1368;49.484;11.112;2022-09-28T00:26:57;8.70;99.90
2721;DHT22;1368;49.484;11.112;2022-09-28T00:29:27;9.00;99.90
2721;DHT22;1368;49.484;11.112;2022-09-28T00:31:54;9.10;99.90
2721;DHT22;1368;49.484;11.112;2022-09-28T00:34:25;9.20;99.90
2721;DHT22;1368;49.484;11.112;2022-09-28T00:36:51;9.40;99.90
2721;DHT22;1368;49.484;11.112;2022-09-28T00:39:16;9.40;99.90
2721;DHT22;1368;49.484;11.112;2022-09-28T00:41:44;9.60;99.90
2721;DHT22;1368;49.484;11.112;2022-09-28T00:46:52;9.80;99.90
2721;DHT22;1368;49.484;11.112;2022-09-28T00:49:25;9.50;99.90
2721;DHT22;1368;49.484;11.112;2022-09-28T00:51:53;9.50;99.90
2721;DHT22;1368;49.484;11.112;2022-09-28T00:54:19;9.20;99.90
2721;DHT22;1368;49.484;11.112;2022-09-28T00:56:47;9.20;99.90
2721;DHT22;1368;49.484;11.112;2022-09-28T00:59:13;9.30;99.90
2721;DHT22;1368;49.484;11.112;2022-09-28T01:01:39;9.50;99.90
2721;DHT22;1368;49.484;11.112;2022-09-28T01:04:05;9.30;99.90
2721;DHT22;1368;49.484;11.112;2022-09-28T01:06:33;9.00;99.90
2721;DHT22;1368;49.484;11.112;2022-09-28T01:09:03;9.20;99.90
2721;DHT22;1368;49.484;11.112;2022-09-28T01:11:31;9.10;99.90
2721;DHT22;1368;49.484;11.112;2022-09-28T01:13:58;9.30;99.90
2721;DHT22;1368;49.484;11.112;2022-09-28T01:16:40;9.20;99.90
2721;DHT22;1368;49.484;11.112;2022-09-28T01:27:42;8.80;99.90
2721;DHT22;1368;49.484;11.112;2022-09-28T01:30:19;8.80;99.90
2721;DHT22;1368;49.484;11.112;2022-09-28T01:35:20;8.50;99.90
2721;DHT22;1368;49.484;11.112;2022-09-28T01:38:04;8.70;99.90
2721;DHT22;1368;49.484;11.112;2022-09-28T01:40:31;8.50;99.90
2721;DHT22;1368;49.484;11.112;2022-09-28T01:43:05;8.50;99.90
2721;DHT22;1368;49.484;11.112;2022-09-28T01:45:43;8.50;99.90
2721;DHT22;1368;49.484;11.112;2022-09-28T01:48:12;8.60;99.90
2721;DHT22;1368;49.484;11.112;2022-09-28T01:50:40;8.50;99.90
2721;DHT22;1368;49.484;11.112;2022-09-28T01:55:40;8.80;99.90
2721;DHT22;1368;49.484;11.112;2022-09-28T01:58:55;8.80;99.90
2721;DHT22;1368;49.484;11.112;2022-09-28T02:01:14;8.90;99.90
2721;DHT22;1368;49.484;11.112;2022-09-28T02:03:51;9.10;99.90
2721;DHT22;1368;49.484;11.112;2022-09-28T02:06:26;8.90;99.90
2721;DHT22;1368;49.484;11.112;2022-09-28T02:08:58;8.60;99.90
2721;DHT22;1368;49.484;11.112;2022-09-28T02:11:24;8.80;99.90
2721;DHT22;1368;49.484;11.112;2022-09-28T02:14:02;8.90;99.90
2721;DHT22;1368;49.484;11.112;2022-09-28T02:16:42;8.70;99.90
2721;DHT22;1368;49.484;11.112;2022-09-28T02:19:15;8.70;99.90
2721;DHT22;1368;49.484;11.112;2022-09-28T02:24:13;8.70;99.90
2721;DHT22;1368;49.484;11.112;2022-09-28T02:26:43;8.70;99.90
2721;DHT22;1368;49.484;11.112;2022-09-28T02:29:10;8.80;99.90
2721;DHT22;1368;49.484;11.112;2022-09-28T02:31:36;8.90;99.90
2721;DHT22;1368;49.484;11.112;2022-09-28T02:34:01;9.00;99.90
2721;DHT22;1368;49.484;11.112;2022-09-28T02:36:27;9.10;99.90
2721;DHT22;1368;49.484;11.112;2022-09-28T02:38:54;8.90;99.90
2721;DHT22;1368;49.484;11.112;2022-09-28T02:41:34;8.90;99.90
2721;DHT22;1368;49.484;11.112;2022-09-28T02:55:37;8.90;99.90
2721;DHT22;1368;49.484;11.112;2022-09-28T03:03:42;8.80;99.90
2721;DHT22;1368;49.484;11.112;2022-09-28T03:06:22;8.90;99.90
2721;DHT22;1368;49.484;11.112;2022-09-28T03:09:17;9.00;99.90
2721;DHT22;1368;49.484;11.112;2022-09-28T03:11:57;9.20;99.90
2721;DHT22;1368;49.484;11.112;2022-09-28T03:14:23;8.90;99.90
2721;DHT22;1368;49.484;11.112;2022-09-28T03:16:49;8.70;99.90
2721;DHT22;1368;49.484;11.112;2022-09-28T03:19:17;8.70;99.90
2721;DHT22;1368;49.484;11.112;2022-09-28T03:21:45;8.90;99.90
2721;DHT22;1368;49.484;11.112;2022-09-28T03:24:10;8.80;99.90
2721;DHT22;1368;49.484;11.112;2022-09-28T03:26:39;9.20;99.90
2721;DHT22;1368;49.484;11.112;2022-09-28T03:29:05;9.10;99.90
2721;DHT22;1368;49.484;11.112;2022-09-28T03:31:30;9.20;99.90
2721;DHT22;1368;49.484;11.112;2022-09-28T03:33:56;9.10;99.90
2721;DHT22;1368;49.484;11.112;2022-09-28T03:36:22;9.20;99.90
2721;DHT22;1368;49.484;11.112;2022-09-28T03:38:47;9.20;99.90
2721;DHT22;1368;49.484;11.112;2022-09-28T03:41:15;9.30;99.90
2721;DHT22;1368;49.484;11.112;2022-09-28T03:43:41;9.50;99.90
2721;DHT22;1368;49.484;11.112;2022-09-28T03:46:06;9.50;99.90
2721;DHT22;1368;49.484;11.112;2022-09-28T03:51:02;9.30;99.90
2721;DHT22;1368;49.484;11.112;2022-09-28T03:53:28;9.10;99.90
2721;DHT22;1368;49.484;11.112;2022-09-28T03:55:54;9.30;99.90
2721;DHT22;1368;49.484;11.112;2022-09-28T03:58:21;9.10;99.90
2721;DHT22;1368;49.484;11.112;2022-09-28T04:00:48;8.90;99.90
2721;DHT22;1368;49.484;11.112;2022-09-28T04:03:14;8.90;99.90
2721;DHT22;1368;49.484;11.112;2022-09-28T04:05:47;9.10;99.90
2721;DHT22;1368;49.484;11.112;2022-09-28T04:08:13;9.10;99.90
2721;DHT22;1368;49.484;11.112;2022-09-28T04:10:38;9.70;99.90
2721;DHT22;1368;49.484;11.112;2022-09-28T04:13:04;9.30;99.90
2721;DHT22;1368;49.484;11.112;2022-09-28T04:15:29;9.10;99.90
2721;DHT22;1368;49.484;11.112;2022-09-28T04:17:55;8.90;99.90
2721;DHT22;1368;49.484;11.112;2022-09-28T04:20:20;9.20;99.90
2721;DHT22;1368;49.484;11.112;2022-09-28T04:22:46;9.30;99.90
2721;DHT22;1368;49.484;11.112;2022-09-28T04:25:12;9.20;99.90
2721;DHT22;1368;49.484;11.112;2022-09-28T04:27:37;8.90;99.90
2721;DHT22;1368;49.484;11.112;2022-09-28T04:30:21;9.10;99.90
2721;DHT22;1368;49.484;11.112;2022-09-28T04:32:47;9.30;99.90
2721;DHT22;1368;49.484;11.112;2022-09-28T04:35:13;9.20;99.90
2721;DHT22;1368;49.484;11.112;2022-09-28T04:37:39;9.30;99.90
2721;DHT22;1368;49.484;11.112;2022-09-28T04:40:05;9.00;99.90
2721;DHT22;1368;49.484;11.112;2022-09-28T04:42:31;9.10;99.90
2721;DHT22;1368;49.484;11.112;2022-09-28T04:44:56;9.20;99.90
2721;DHT22;1368;49.484;11.112;2022-09-28T04:47:23;9.30;99.90
2721;DHT22;1368;49.484;11.112;2022-09-28T04:49:49;9.50;99.90
2721;DHT22;1368;49.484;11.112;2022-09-28T04:52:15;9.60;99.90
2721;DHT22;1368;49.484;11.112;2022-09-28T04:54:40;9.80;99.90
2721;DHT22;1368;49.484;11.112;2022-09-28T04:57:06;9.80;99.90
2721;DHT22;1368;49.484;11.112;2022-09-28T04:59:32;10.00;99.90
2721;DHT22;1368;49.484;11.112;2022-09-28T05:01:58;10.20;99.90
2721;DHT22;1368;49.484;11.112;2022-09-28T05:04:23;10.40;99.90
2721;DHT22;1368;49.484;11.112;2022-09-28T05:06:49;10.10;99.90
2721;DHT22;1368;49.484;11.112;2022-09-28T05:09:15;9.90;99.90
2721;DHT22;1368;49.484;11.112;2022-09-28T05:11:40;10.00;99.90
2721;DHT22;1368;49.484;11.112;2022-09-28T05:14:06;9.90;99.90
2721;DHT22;1368;49.484;11.112;2022-09-28T05:16:32;9.90;99.90
2721;DHT22;1368;49.484;11.112;2022-09-28T05:19:00;9.90;99.90
2721;DHT22;1368;49.484;11.112;2022-09-28T05:21:26;9.70;99.90
2721;DHT22;1368;49.484;11.112;2022-09-28T05:23:53;9.80;99.90
2721;DHT22;1368;49.484;11.112;2022-09-28T05:26:21;9.90;99.90
2721;DHT22;1368;49.484;11.112;2022-09-28T05:28:47;9.60;99.90
2721;DHT22;1368;49.484;11.112;2022-09-28T05:31:13;9.70;99.90
2721;DHT22;1368;49.484;11.112;2022-09-28T05:33:38;9.80;99.90
2721;DHT22;1368;49.484;11.112;2022-09-28T05:36:08;10.00;99.90
2721;DHT22;1368;49.484;11.112;2022-09-28T05:38:34;10.30;99.90
2721;DHT22;1368;49.484;11.112;2022-09-28T05:41:00;10.20;99.90
2721;DHT22;1368;49.484;11.112;2022-09-28T05:43:25;10.10;99.90
2721;DHT22;1368;49.484;11.112;2022-09-28T05:45:51;9.90;99.90
2721;DHT22;1368;49.484;11.112;2022-09-28T05:48:16;10.00;99.90
2721;DHT22;1368;49.484;11.112;2022-09-28T05:50:42;10.20;99.90
2721;DHT22;1368;49.484;11.112;2022-09-28T05:53:08;10.40;99.90
2721;DHT22;1368;49.484;11.112;2022-09-28T05:55:35;10.50;99.90
2721;DHT22;1368;49.484;11.112;2022-09-28T05:58:03;10.70;99.90
2721;DHT22;1368;49.484;11.112;2022-09-28T06:00:31;10.70;99.90
2721;DHT22;1368;49.484;11.112;2022-09-28T06:03:09;10.60;99.90
2721;DHT22;1368;49.484;11.112;2022-09-28T06:05:36;10.60;99.90
2721;DHT22;1368;49.484;11.112;2022-09-28T06:08:04;10.60;99.90
2721;DHT22;1368;49.484;11.112;2022-09-28T06:10:31;10.70;99.90
2721;DHT22;1368;49.484;11.112;2022-09-28T06:12:57;10.80;99.90
2721;DHT22;1368;49.484;11.112;2022-09-28T06:15:24;10.90;99.90
2721;DHT22;1368;49.484;11.112;2022-09-28T06:17:57;10.80;99.90
2721;DHT22;1368;49.484;11.112;2022-09-28T06:20:27;10.70;99.90
2721;DHT22;1368;49.484;11.112;2022-09-28T06:22:53;10.80;99.90
2721;DHT22;1368;49.484;11.112;2022-09-28T06:25:20;10.70;99.90
2721;DHT22;1368;49.484;11.112;2022-09-28T06:28:15;10.90;99.90
2721;DHT22;1368;49.484;11.112;2022-09-28T06:30:42;10.90;99.90
2721;DHT22;1368;49.484;11.112;2022-09-28T06:33:10;11.40;99.90
2721;DHT22;1368;49.484;11.112;2022-09-28T06:35:37;11.40;99.90
2721;DHT22;1368;49.484;11.112;2022-09-28T06:38:03;11.40;99.90
2721;DHT22;1368;49.484;11.112;2022-09-28T06:40:29;11.50;99.90
2721;DHT22;1368;49.484;11.112;2022-09-28T06:42:59;11.70;99.90
2721;DHT22;1368;49.484;11.112;2022-09-28T06:45:26;11.90;99.90
2721;DHT22;1368;49.484;11.112;2022-09-28T06:48:01;11.80;99.90
2721;DHT22;1368;49.484;11.112;2022-09-28T06:50:29;11.80;99.90
2721;DHT22;1368;49.484;11.112;2022-09-28T06:52:59;11.90;99.90
2721;DHT22;1368;49.484;11.112;2022-09-28T06:55:26;11.90;99.90
2721;DHT22;1368;49.484;11.112;2022-09-28T06:57:59;11.90;99.90
2721;DHT22;1368;49.484;11.112;2022-09-28T07:00:26;11.80;99.90
2721;DHT22;1368;49.484;11.112;2022-09-28T07:02:52;11.90;99.90
2721;DHT22;1368;49.484;11.112;2022-09-28T07:05:18;12.00;99.90
2721;DHT22;1368;49.484;11.112;2022-09-28T07:07:48;12.20;99.90
2721;DHT22;1368;49.484;11.112;2022-09-28T07:10:14;12.20;99.90
2721;DHT22;1368;49.484;11.112;2022-09-28T07:12:39;12.20;99.90
2721;DHT22;1368;49.484;11.112;2022-09-28T07:15:05;12.10;99.90
2721;DHT22;1368;49.484;11.112;2022-09-28T07:17:31;12.30;99.90
2721;DHT22;1368;49.484;11.112;2022-09-28T07:19:59;12.30;99.90
2721;DHT22;1368;49.484;11.112;2022-09-28T07:22:24;12.20;99.90
2721;DHT22;1368;49.484;11.112;2022-09-28T07:24:50;12.20;99.90
2721;DHT22;1368;49.484;11.112;2022-09-28T07:27:16;12.30;99.90
2721;DHT22;1368;49.484;11.112;2022-09-28T07:29:42;12.40;99.90
2721;DHT22;1368;49.484;11.112;2022-09-28T07:32:07;12.40;99.90
2721;DHT22;1368;49.484;11.112;2022-09-28T07:34:33;12.50;99.90
2721;DHT22;1368;49.484;11.112;2022-09-28T07:37:04;12.60;99.90
2721;DHT22;1368;49.484;11.112;2022-09-28T07:39:33;12.70;99.90
2721;DHT22;1368;49.484;11.112;2022-09-28T07:42:18;12.80;99.90
2721;DHT22;1368;49.484;11.112;2022-09-28T07:44:44;12.90;99.90
2721;DHT22;1368;49.484;11.112;2022-09-28T07:47:10;13.00;99.90
2721;DHT22;1368;49.484;11.112;2022-09-28T07:49:35;13.00;99.90
2721;DHT22;1368;49.484;11.112;2022-09-28T07:52:01;12.90;99.90
2721;DHT22;1368;49.484;11.112;2022-09-28T07:54:26;12.70;99.90
2721;DHT22;1368;49.484;11.112;2022-09-28T07:56:52;12.60;99.90
2721;DHT22;1368;49.484;11.112;2022-09-28T07:59:17;12.60;99.90
2721;DHT22;1368;49.484;11.112;2022-09-28T08:01:43;12.40;99.90
2721;DHT22;1368;49.484;11.112;2022-09-28T08:04:08;12.00;99.90
2721;DHT22;1368;49.484;11.112;2022-09-28T08:06:34;11.90;99.90
2721;DHT22;1368;49.484;11.112;2022-09-28T08:08:59;11.60;99.90
2721;DHT22;1368;49.484;11.112;2022-09-28T08:11:26;11.70;99.90
2721;DHT22;1368;49.484;11.112;2022-09-28T08:13:51;11.60;99.90
2721;DHT22;1368;49.484;11.112;2022-09-28T08:16:19;11.80;99.90
2721;DHT22;1368;49.484;11.112;2022-09-28T08:18:47;12.00;99.90
2721;DHT22;1368;49.484;11.112;2022-09-28T08:21:13;12.10;99.90
2721;DHT22;1368;49.484;11.112;2022-09-28T08:23:57;12.70;99.90
2721;DHT22;1368;49.484;11.112;2022-09-28T08:26:23;12.30;99.90
2721;DHT22;1368;49.484;11.112;2022-09-28T08:28:48;12.40;99.90
2721;DHT22;1368;49.484;11.112;2022-09-28T08:31:14;12.60;99.90
2721;DHT22;1368;49.484;11.112;2022-09-28T08:33:40;12.80;99.90
2721;DHT22;1368;49.484;11.112;2022-09-28T08:36:08;12.90;99.90
2721;DHT22;1368;49.484;11.112;2022-09-28T08:38:34;13.10;99.90
2721;DHT22;1368;49.484;11.112;2022-09-28T08:41:12;13.20;99.90
2721;DHT22;1368;49.484;11.112;2022-09-28T08:43:56;13.20;99.90
2721;DHT22;1368;49.484;11.112;2022-09-28T08:46:25;13.30;99.90
2721;DHT22;1368;49.484;11.112;2022-09-28T08:49:17;13.60;99.90
2721;DHT22;1368;49.484;11.112;2022-09-28T08:51:44;13.70;99.90
2721;DHT22;1368;49.484;11.112;2022-09-28T08:57:49;13.50;99.90
2721;DHT22;1368;49.484;11.112;2022-09-28T09:00:25;13.60;99.90
2721;DHT22;1368;49.484;11.112;2022-09-28T09:02:53;13.80;99.90
2721;DHT22;1368;49.484;11.112;2022-09-28T09:05:23;14.60;99.90
2721;DHT22;1368;49.484;11.112;2022-09-28T09:10:52;17.20;99.90
2721;DHT22;1368;49.484;11.112;2022-09-28T09:16:33;17.70;99.90
2721;DHT22;1368;49.484;11.112;2022-09-28T09:22:09;18.10;99.90
2721;DHT22;1368;49.484;11.112;2022-09-28T09:24:50;17.70;99.90
2721;DHT22;1368;49.484;11.112;2022-09-28T09:30:11;16.50;99.90
2721;DHT22;1368;49.484;11.112;2022-09-28T09:35:52;15.50;99.90
2721;DHT22;1368;49.484;11.112;2022-09-28T09:38:28;15.90;99.90
2721;DHT22;1368;49.484;11.112;2022-09-28T09:41:23;16.50;99.90
2721;DHT22;1368;49.484;11.112;2022-09-28T09:43:56;17.50;99.90
2721;DHT22;1368;49.484;11.112;2022-09-28T09:46:39;17.70;99.90
2721;DHT22;1368;49.484;11.112;2022-09-28T09:49:18;17.90;99.90
2721;DHT22;1368;49.484;11.112;2022-09-28T09:52:00;17.90;99.90
2721;DHT22;1368;49.484;11.112;2022-09-28T09:54:29;18.40;99.90
2721;DHT22;1368;49.484;11.112;2022-09-28T09:57:03;19.00;99.90
2721;DHT22;1368;49.484;11.112;2022-09-28T09:59:37;19.50;99.90
2721;DHT22;1368;49.484;11.112;2022-09-28T10:02:25;19.40;99.90
2721;DHT22;1368;49.484;11.112;2022-09-28T10:04:56;19.70;99.90
2721;DHT22;1368;49.484;11.112;2022-09-28T10:07:29;19.90;99.90
2721;DHT22;1368;49.484;11.112;2022-09-28T10:09:59;20.00;99.90
2721;DHT22;1368;49.484;11.112;2022-09-28T10:12:25;20.50;99.90
2721;DHT22;1368;49.484;11.112;2022-09-28T10:14:51;19.90;99.90
2721;DHT22;1368;49.484;11.112;2022-09-28T10:17:19;19.50;99.90
2721;DHT22;1368;49.484;11.112;2022-09-28T10:19:52;19.30;99.90
2721;DHT22;1368;49.484;11.112;2022-09-28T10:22:21;19.00;99.90
2721;DHT22;1368;49.484;11.112;2022-09-28T10:24:50;18.50;99.90
2721;DHT22;1368;49.484;11.112;2022-09-28T10:27:24;18.00;99.90
2721;DHT22;1368;49.484;11.112;2022-09-28T10:29:59;18.20;99.90
2721;DHT22;1368;49.484;11.112;2022-09-28T10:32:39;18.80;99.90
2721;DHT22;1368;49.484;11.112;2022-09-28T10:35:28;18.60;99.90
2721;DHT22;1368;49.484;11.112;2022-09-28T10:40:44;18.60;99.90
2721;DHT22;1368;49.484;11.112;2022-09-28T10:43:23;18.70;99.90
2721;DHT22;1368;49.484;11.112;2022-09-28T10:46:22;18.90;99.90
2721;DHT22;1368;49.484;11.112;2022-09-28T10:51:19;18.60;99.90
2721;DHT22;1368;49.484;11.112;2022-09-28T10:53:59;18.50;99.90
2721;DHT22;1368;49.484;11.112;2022-09-28T10:56:34;18.60;99.90
2721;DHT22;1368;49.484;11.112;2022-09-28T10:59:00;18.10;99.90
2721;DHT22;1368;49.484;11.112;2022-09-28T11:01:31;18.30;99.90
2721;DHT22;1368;49.484;11.112;2022-09-28T11:04:02;18.00;99.90
2721;DHT22;1368;49.484;11.112;2022-09-28T11:06:35;18.20;99.90
2721;DHT22;1368;49.484;11.112;2022-09-28T11:09:18;18.40;99.90
2721;DHT22;1368;49.484;11.112;2022-09-28T11:11:45;18.10;97.70
2721;DHT22;1368;49.484;11.112;2022-09-28T11:14:38;18.10;98.50
2721;DHT22;1368;49.484;11.112;2022-09-28T11:17:36;18.10;98.70
2721;DHT22;1368;49.484;11.112;2022-09-28T11:25:42;18.50;98.30
2721;DHT22;1368;49.484;11.112;2022-09-28T11:28:22;18.80;97.50
2721;DHT22;1368;49.484;11.112;2022-09-28T11:30:51;18.90;99.30
2721;DHT22;1368;49.484;11.112;2022-09-28T11:33:24;18.80;97.30
2721;DHT22;1368;49.484;11.112;2022-09-28T11:44:44;17.50;99.10
2721;DHT22;1368;49.484;11.112;2022-09-28T11:47:44;17.50;99.90
2721;DHT22;1368;49.484;11.112;2022-09-28T11:50:19;17.60;99.60
2721;DHT22;1368;49.484;11.112;2022-09-28T11:52:59;17.50;99.30
2721;DHT22;1368;49.484;11.112;2022-09-28T11:55:41;17.10;98.10
2721;DHT22;1368;49.484;11.112;2022-09-28T12:00:51;17.10;99.40
2721;DHT22;1368;49.484;11.112;2022-09-28T12:03:25;17.40;99.90
2721;DHT22;1368;49.484;11.112;2022-09-28T12:06:03;17.50;98.90
2721;DHT22;1368;49.484;11.112;2022-09-28T12:08:33;17.70;99.20
2721;DHT22;1368;49.484;11.112;2022-09-28T12:11:05;18.00;99.20
2721;DHT22;1368;49.484;11.112;2022-09-28T12:13:42;18.40;99.20
2721;DHT22;1368;49.484;11.112;2022-09-28T12:19:07;18.90;99.00
2721;DHT22;1368;49.484;11.112;2022-09-28T12:21:43;18.60;99.20
2721;DHT22;1368;49.484;11.112;2022-09-28T12:24:28;18.70;99.20
2721;DHT22;1368;49.484;11.112;2022-09-28T12:30:01;18.60;98.30
2721;DHT22;1368;49.484;11.112;2022-09-28T12:41:10;18.20;97.00
2721;DHT22;1368;49.484;11.112;2022-09-28T12:43:54;17.80;97.20
2721;DHT22;1368;49.484;11.112;2022-09-28T12:51:52;17.10;97.00
2721;DHT22;1368;49.484;11.112;2022-09-28T12:54:38;16.90;97.20
2721;DHT22;1368;49.484;11.112;2022-09-28T12:57:25;16.90;96.80
2721;DHT22;1368;49.484;11.112;2022-09-28T13:00:19;16.50;97.30
2721;DHT22;1368;49.484;11.112;2022-09-28T13:11:33;17.10;97.20
2721;DHT22;1368;49.484;11.112;2022-09-28T13:17:41;17.50;97.40
2721;DHT22;1368;49.484;11.112;2022-09-28T13:23:14;17.00;94.90
2721;DHT22;1368;49.484;11.112;2022-09-28T13:25:50;17.00;95.80
2721;DHT22;1368;49.484;11.112;2022-09-28T13:28:18;16.90;96.30
2721;DHT22;1368;49.484;11.112;2022-09-28T13:30:45;17.00;97.00
2721;DHT22;1368;49.484;11.112;2022-09-28T13:33:22;17.60;96.60
2721;DHT22;1368;49.484;11.112;2022-09-28T13:35:50;17.20;97.20
2721;DHT22;1368;49.484;11.112;2022-09-28T13:41:11;17.40;97.30
2721;DHT22;1368;49.484;11.112;2022-09-28T13:46:47;16.90;97.90
2721;DHT22;1368;49.484;11.112;2022-09-28T13:52:12;17.00;97.80
2721;DHT22;1368;49.484;11.112;2022-09-28T13:57:50;16.00;98.00
2721;DHT22;1368;49.484;11.112;2022-09-28T14:00:23;16.10;98.70
2721;DHT22;1368;49.484;11.112;2022-09-28T14:03:03;16.40;98.50
2721;DHT22;1368;49.484;11.112;2022-09-28T14:08:35;16.80;98.30
2721;DHT22;1368;49.484;11.112;2022-09-28T14:11:22;16.60;97.30
2721;DHT22;1368;49.484;11.112;2022-09-28T14:14:29;16.60;97.90
2721;DHT22;1368;49.484;11.112;2022-09-28T14:20:09;16.40;98.80
2721;DHT22;1368;49.484;11.112;2022-09-28T14:28:50;16.50;98.50
2721;DHT22;1368;49.484;11.112;2022-09-28T14:31:29;16.50;98.70
2721;DHT22;1368;49.484;11.112;2022-09-28T14:34:00;16.60;98.70
2721;DHT22;1368;49.484;11.112;2022-09-28T14:36:47;16.20;99.30
2721;DHT22;1368;49.484;11.112;2022-09-28T14:39:33;16.40;98.90
2721;DHT22;1368;49.484;11.112;2022-09-28T14:42:24;16.00;99.80
2721;DHT22;1368;49.484;11.112;2022-09-28T14:48:01;16.10;99.90
2721;DHT22;1368;49.484;11.112;2022-09-28T14:50:26;16.30;99.90
2721;DHT22;1368;49.484;11.112;2022-09-28T14:53:03;16.30;99.90
2721;DHT22;1368;49.484;11.112;2022-09-28T14:55:43;16.50;99.90
2721;DHT22;1368;49.484;11.112;2022-09-28T14:58:17;16.50;99.90
2721;DHT22;1368;49.484;11.112;2022-09-28T15:00:44;16.40;99.90
2721;DHT22;1368;49.484;11.112;2022-09-28T15:03:11;16.20;99.80
2721;DHT22;1368;49.484;11.112;2022-09-28T15:05:47;16.20;99.50
2721;DHT22;1368;49.484;11.112;2022-09-28T15:08:14;16.00;99.30
2721;DHT22;1368;49.484;11.112;2022-09-28T15:10:45;15.90;99.90
2721;DHT22;1368;49.484;11.112;2022-09-28T15:13:24;15.90;99.40
2721;DHT22;1368;49.484;11.112;2022-09-28T15:15:53;15.70;99.60
2721;DHT22;1368;49.484;11.112;2022-09-28T15:18:47;15.80;99.60
2721;DHT22;1368;49.484;11.112;2022-09-28T15:21:13;15.80;99.90
2721;DHT22;1368;49.484;11.112;2022-09-28T15:23:41;16.10;99.90
2721;DHT22;1368;49.484;11.112;2022-09-28T15:26:25;15.90;99.90
2721;DHT22;1368;49.484;11.112;2022-09-28T15:28:53;15.70;99.60
2721;DHT22;1368;49.484;11.112;2022-09-28T15:31:21;15.50;99.90
2721;DHT22;1368;49.484;11.112;2022-09-28T15:33:47;15.80;99.90
2721;DHT22;1368;49.484;11.112;2022-09-28T15:36:36;15.50;99.90
2721;DHT22;1368;49.484;11.112;2022-09-28T15:39:06;15.60;99.90
2721;DHT22;1368;49.484;11.112;2022-09-28T15:41:35;15.60;99.40
2721;DHT22;1368;49.484;11.112;2022-09-28T15:46:31;15.60;99.50
2721;DHT22;1368;49.484;11.112;2022-09-28T15:48:59;15.60;99.70
2721;DHT22;1368;49.484;11.112;2022-09-28T15:51:27;15.60;99.40
2721;DHT22;1368;49.484;11.112;2022-09-28T15:53:56;16.00;99.90
2721;DHT22;1368;49.484;11.112;2022-09-28T15:56:23;15.60;99.10
2721;DHT22;1368;49.484;11.112;2022-09-28T16:01:38;15.70;99.90
2721;DHT22;1368;49.484;11.112;2022-09-28T16:07:19;15.60;99.80
2721;DHT22;1368;49.484;11.112;2022-09-28T16:10:26;15.50;99.90
2721;DHT22;1368;49.484;11.112;2022-09-28T16:12:57;15.40;99.90
2721;DHT22;1368;49.484;11.112;2022-09-28T16:15:33;15.40;99.90
2721;DHT22;1368;49.484;11.112;2022-09-28T16:18:05;15.40;99.90
2721;DHT22;1368;49.484;11.112;2022-09-28T16:20:43;15.20;99.90
2721;DHT22;1368;49.484;11.112;2022-09-28T16:26:03;15.10;99.90
2721;DHT22;1368;49.484;11.112;2022-09-28T16:31:04;14.70;99.90
2721;DHT22;1368;49.484;11.112;2022-09-28T16:36:13;14.20;99.90
2721;DHT22;1368;49.484;11.112;2022-09-28T16:38:43;13.70;99.90
2721;DHT22;1368;49.484;11.112;2022-09-28T16:41:09;13.50;99.90
2721;DHT22;1368;49.484;11.112;2022-09-28T16:43:35;13.20;99.90
2721;DHT22;1368;49.484;11.112;2022-09-28T16:46:07;13.30;99.90
2721;DHT22;1368;49.484;11.112;2022-09-28T16:48:42;13.30;99.90
2721;DHT22;1368;49.484;11.112;2022-09-28T16:51:16;13.20;99.90
2721;DHT22;1368;49.484;11.112;2022-09-28T16:53:42;13.30;99.90
2721;DHT22;1368;49.484;11.112;2022-09-28T16:56:27;13.20;99.90
2721;DHT22;1368;49.484;11.112;2022-09-28T16:58:54;13.50;99.90
2721;DHT22;1368;49.484;11.112;2022-09-28T17:01:20;13.30;99.90
2721;DHT22;1368;49.484;11.112;2022-09-28T17:03:46;13.30;99.90
2721;DHT22;1368;49.484;11.112;2022-09-28T17:06:15;13.20;99.90
2721;DHT22;1368;49.484;11.112;2022-09-28T17:08:41;13.30;99.90
2721;DHT22;1368;49.484;11.112;2022-09-28T17:11:13;13.40;99.90
2721;DHT22;1368;49.484;11.112;2022-09-28T17:13:39;13.50;99.90
2721;DHT22;1368;49.484;11.112;2022-09-28T17:16:20;13.90;99.90
2721;DHT22;1368;49.484;11.112;2022-09-28T17:18:47;13.50;99.90
2721;DHT22;1368;49.484;11.112;2022-09-28T17:21:15;13.50;99.90
2721;DHT22;1368;49.484;11.112;2022-09-28T17:23:43;13.50;99.90
2721;DHT22;1368;49.484;11.112;2022-09-28T17:26:19;13.50;99.90
2721;DHT22;1368;49.484;11.112;2022-09-28T17:28:47;13.20;99.90
2721;DHT22;1368;49.484;11.112;2022-09-28T17:31:15;13.20;99.90
2721;DHT22;1368;49.484;11.112;2022-09-28T17:33:41;13.40;99.90
2721;DHT22;1368;49.484;11.112;2022-09-28T17:36:13;13.30;99.90
2721;DHT22;1368;49.484;11.112;2022-09-28T17:38:40;13.20;99.90
2721;DHT22;1368;49.484;11.112;2022-09-28T17:41:15;13.20;99.90
2721;DHT22;1368;49.484;11.112;2022-09-28T17:43:41;13.10;99.90
2721;DHT22;1368;49.484;11.112;2022-09-28T17:48:41;13.10;99.90
2721;DHT22;1368;49.484;11.112;2022-09-28T17:51:12;12.90;99.90
2721;DHT22;1368;49.484;11.112;2022-09-28T17:53:38;12.40;99.90
2721;DHT22;1368;49.484;11.112;2022-09-28T17:56:04;12.40;99.90
2721;DHT22;1368;49.484;11.112;2022-09-28T17:58:29;12.40;99.90
2721;DHT22;1368;49.484;11.112;2022-09-28T18:00:55;12.60;99.90
2721;DHT22;1368;49.484;11.112;2022-09-28T18:03:22;12.80;99.90
2721;DHT22;1368;49.484;11.112;2022-09-28T18:05:57;12.90;99.90
2721;DHT22;1368;49.484;11.112;2022-09-28T18:08:23;13.00;99.90
2721;DHT22;1368;49.484;11.112;2022-09-28T18:10:49;13.10;99.90
2721;DHT22;1368;49.484;11.112;2022-09-28T18:13:14;13.10;99.90
2721;DHT22;1368;49.484;11.112;2022-09-28T18:15:41;13.10;99.90
2721;DHT22;1368;49.484;11.112;2022-09-28T18:18:06;13.10;99.90
2721;DHT22;1368;49.484;11.112;2022-09-28T18:20:34;13.10;99.90
2721;DHT22;1368;49.484;11.112;2022-09-28T18:23:00;13.10;99.90
2721;DHT22;1368;49.484;11.112;2022-09-28T18:25:26;13.10;99.90
2721;DHT22;1368;49.484;11.112;2022-09-28T18:27:52;12.90;99.90
2721;DHT22;1368;49.484;11.112;2022-09-28T18:30:22;12.90;99.90
2721;DHT22;1368;49.484;11.112;2022-09-28T18:32:47;12.80;99.90
2721;DHT22;1368;49.484;11.112;2022-09-28T18:35:13;13.00;99.90
2721;DHT22;1368;49.484;11.112;2022-09-28T18:37:39;13.10;99.90
2721;DHT22;1368;49.484;11.112;2022-09-28T18:40:09;13.40;99.90
2721;DHT22;1368;49.484;11.112;2022-09-28T18:42:35;13.20;99.90
2721;DHT22;1368;49.484;11.112;2022-09-28T18:45:02;13.20;99.90
2721;DHT22;1368;49.484;11.112;2022-09-28T18:47:28;13.10;99.90
2721;DHT22;1368;49.484;11.112;2022-09-28T18:49:54;13.10;99.90
2721;DHT22;1368;49.484;11.112;2022-09-28T18:52:19;13.00;99.90